Time;durP1;ratioP1;P1;durP2;ratioP2;P2;SDS_P1;SDS_P2;PMS_P1;PMS_P2;Temp;Humidity;BMP_temperature;BMP_pressure;BME280_temperature;BME280_humidity;BME280_pressure;Samples;Min_cycle;Max_cycle;Signal;HPM_P1;HPM_P2
2022/12/30 00:01:24;;;;;;;36.57;6.97;;;;;;;;;;5069653;27;20883;-61
2022/12/30 00:03:52;;;;;;;61.60;12.83;;;9.00;99.90;;;;;;5060972;27;20745;-61
2022/12/30 00:06:21;;;;;;;29.70;6.60;;;8.90;99.90;;;;;;5064827;27;20592;-61
2022/12/30 00:08:50;;;;;;;52.77;11.30;;;8.90;99.90;;;;;;5064194;27;20534;-61
2022/12/30 00:11:18;;;;;;;30.60;7.50;;;8.90;99.90;;;;;;5053212;27;20486;-61
2022/12/30 00:33:28;;;;;;;28.47;6.60;;;8.30;99.90;;;;;;5075974;27;20566;-60
2022/12/30 00:35:56;;;;;;;46.13;10.97;;;;;;;;;;5068622;27;20880;-60
2022/12/30 00:38:23;;;;;;;35.37;8.20;;;8.30;99.90;;;;;;5064980;27;20475;-60
2022/12/30 00:43:34;;;;;;;48.80;10.17;;;;;;;;;;5037655;27;21144;-60
2022/12/30 00:46:01;;;;;;;48.23;10.30;;;8.10;99.90;;;;;;5051568;27;20755;-60
2022/12/30 00:56:44;;;;;;;40.80;8.07;;;;;;;;;;5052097;28;20587;-60
2022/12/30 00:59:11;;;;;;;41.40;9.30;;;7.80;99.90;;;;;;5029099;27;20889;-60
2022/12/30 01:01:38;;;;;;;35.60;8.63;;;;;;;;;;5045106;28;20891;-60
2022/12/30 01:04:06;;;;;;;41.63;8.83;;;;;;;;;;5029462;28;21016;-60
2022/12/30 01:06:34;;;;;;;54.30;9.40;;;7.40;99.90;;;;;;5031544;28;20659;-59
2022/12/30 01:09:01;;;;;;;46.67;10.00;;;;;;;;;;5041867;28;20482;-60
2022/12/30 01:11:28;;;;;;;40.83;8.63;;;;;;;;;;5008423;28;20588;-60
2022/12/30 01:13:54;;;;;;;45.03;9.27;;;7.60;99.90;;;;;;5057915;28;20498;-60
2022/12/30 01:16:21;;;;;;;23.57;6.03;;;7.70;99.90;;;;;;5054471;27;20832;-60
2022/12/30 01:18:48;;;;;;;44.73;11.80;;;7.60;99.90;;;;;;5091343;27;20756;-60
2022/12/30 01:21:15;;;;;;;36.97;8.27;;;;;;;;;;5055648;28;20474;-60
2022/12/30 01:23:43;;;;;;;41.37;8.70;;;7.50;99.90;;;;;;5082618;27;20482;-60
2022/12/30 01:26:11;;;;;;;41.90;8.53;;;;;;;;;;5052361;28;20475;-60
2022/12/30 01:28:38;;;;;;;48.30;10.60;;;7.20;99.90;;;;;;5052450;28;20902;-60
2022/12/30 01:31:07;;;;;;;35.63;9.33;;;7.10;99.90;;;;;;5048202;28;20466;-60
2022/12/30 01:33:34;;;;;;;41.00;8.93;;;7.10;99.90;;;;;;5050889;27;20817;-60
2022/12/30 01:36:01;;;;;;;38.77;10.80;;;7.10;99.90;;;;;;5064141;27;20486;-60
2022/12/30 01:38:29;;;;;;;32.20;6.87;;;7.10;99.90;;;;;;5073346;27;20510;-60
2022/12/30 01:40:58;;;;;;;70.13;13.90;;;7.20;99.90;;;;;;5078788;27;20894;-60
2022/12/30 01:43:46;;;;;;;28.63;6.97;;;7.10;99.90;;;;;;5069165;28;20490;-60
2022/12/30 01:46:18;;;;;;;35.77;7.03;;;7.10;99.90;;;;;;5088220;27;20471;-60
2022/12/30 01:48:45;;;;;;;44.33;8.90;;;7.00;99.90;;;;;;5073307;28;20960;-60
2022/12/30 01:51:16;;;;;;;29.20;5.90;;;6.90;99.90;;;;;;5061373;28;20631;-59
2022/12/30 01:53:47;;;;;;;37.70;7.70;;;7.00;99.90;;;;;;5057659;27;21001;-60
2022/12/30 01:56:21;;;;;;;40.00;7.57;;;7.00;99.90;;;;;;5086858;27;20508;-60
2022/12/30 01:58:53;;;;;;;51.23;10.53;;;7.20;99.90;;;;;;5056113;28;20848;-60
2022/12/30 02:01:22;;;;;;;23.77;6.50;;;7.20;99.90;;;;;;5042402;28;20459;-60
2022/12/30 02:03:56;;;;;;;46.53;11.87;;;7.20;99.90;;;;;;5065389;28;20490;-60
2022/12/30 02:06:26;;;;;;;36.90;6.43;;;7.20;99.90;;;;;;5055763;27;20870;-59
2022/12/30 02:08:54;;;;;;;53.50;12.10;;;7.20;99.90;;;;;;5066739;28;20479;-60
2022/12/30 02:11:23;;;;;;;24.80;5.43;;;7.10;99.90;;;;;;5061374;28;20516;-60
2022/12/30 02:13:49;;;;;;;61.27;12.50;;;7.10;99.90;;;;;;5079125;27;20577;-60
2022/12/30 02:16:34;;;;;;;38.63;7.03;;;;;;;;;;5081047;27;20480;-60
2022/12/30 02:19:19;;;;;;;44.00;9.07;;;7.00;99.90;;;;;;5057089;27;20492;-60
2022/12/30 02:22:00;;;;;;;33.83;7.63;;;6.90;99.90;;;;;;5081317;27;20996;-60
2022/12/30 02:24:42;;;;;;;39.47;7.23;;;;;;;;;;5064566;28;20486;-60
2022/12/30 02:27:41;;;;;;;32.13;6.57;;;6.80;99.90;;;;;;5063524;27;20519;-60
2022/12/30 02:30:15;;;;;;;49.07;11.33;;;6.90;99.90;;;;;;5019078;28;20984;-60
2022/12/30 02:33:02;;;;;;;50.17;8.10;;;6.90;99.90;;;;;;5055870;28;20490;-60
2022/12/30 02:35:36;;;;;;;40.63;8.30;;;7.00;99.90;;;;;;5069790;28;21035;-61
2022/12/30 02:38:10;;;;;;;25.73;6.17;;;;;;;;;;5032854;28;20564;-60
2022/12/30 02:46:18;;;;;;;34.70;7.30;;;7.00;99.90;;;;;;5029263;28;20487;-60
2022/12/30 02:48:48;;;;;;;39.40;9.93;;;;;;;;;;5032858;28;20480;-60
2022/12/30 02:54:00;;;;;;;35.97;8.60;;;6.90;99.90;;;;;;5068249;28;20494;-60
2022/12/30 02:56:26;;;;;;;31.43;7.87;;;6.90;99.90;;;;;;5043206;28;20476;-60
2022/12/30 03:03:57;;;;;;;60.40;13.73;;;6.80;99.90;;;;;;5030573;28;20802;-60
2022/12/30 03:04:45;;;;;;;39.23;8.00;;;;;;;;;;5033197;28;20543;-60
2022/12/30 03:07:23;;;;;;;35.13;6.73;;;7.10;99.90;;;;;;5035079;28;20489;-60
2022/12/30 03:12:55;;;;;;;41.30;11.57;;;7.20;99.90;;;;;;5037949;28;20565;-61
2022/12/30 03:15:27;;;;;;;32.60;6.17;;;7.30;99.90;;;;;;5025265;28;20764;-60
2022/12/30 03:17:54;;;;;;;47.27;12.07;;;7.20;99.90;;;;;;5061444;28;20497;-60
2022/12/30 03:20:24;;;;;;;48.23;8.30;;;;;;;;;;5055055;28;21478;-60
2022/12/30 03:28:35;;;;;;;38.50;8.00;;;7.30;99.90;;;;;;5031242;28;20494;-60
2022/12/30 03:31:04;;;;;;;37.13;7.80;;;;;;;;;;5033977;28;20552;-60
2022/12/30 03:33:32;;;;;;;33.17;6.80;;;7.40;99.90;;;;;;5035521;28;20537;-60
2022/12/30 03:36:04;;;;;;;46.20;9.67;;;;;;;;;;5032740;28;20550;-60
2022/12/30 03:38:35;;;;;;;28.13;7.90;;;7.50;99.90;;;;;;5031330;28;20487;-60
2022/12/30 03:41:05;;;;;;;38.83;8.40;;;7.40;99.90;;;;;;5045116;28;20971;-60
2022/12/30 03:43:33;;;;;;;43.30;7.57;;;;;;;;;;5028262;28;20491;-59
2022/12/30 03:46:00;;;;;;;59.00;10.50;;;;;;;;;;5046420;28;20948;-60
2022/12/30 03:48:27;;;;;;;33.87;6.53;;;7.30;99.90;;;;;;5037882;28;20488;-60
2022/12/30 03:50:53;;;;;;;46.97;10.50;;;7.40;99.90;;;;;;5029467;28;20502;-60
2022/12/30 03:53:21;;;;;;;40.27;7.00;;;7.40;99.90;;;;;;5029404;28;20573;-60
2022/12/30 03:55:48;;;;;;;58.43;10.87;;;7.40;99.90;;;;;;5031787;28;21028;-60
2022/12/30 03:58:15;;;;;;;30.40;5.80;;;;;;;;;;5035883;28;20855;-60
2022/12/30 04:00:42;;;;;;;36.90;7.70;;;7.30;99.90;;;;;;5035767;28;20487;-59
2022/12/30 04:03:08;;;;;;;41.53;7.17;;;7.20;99.90;;;;;;5029306;28;20849;-60
2022/12/30 04:05:35;;;;;;;31.40;7.20;;;7.20;99.90;;;;;;5022917;28;20923;-60
2022/12/30 04:08:02;;;;;;;43.30;8.60;;;7.00;99.90;;;;;;5049399;28;20488;-59
2022/12/30 04:10:30;;;;;;;36.23;6.73;;;6.90;99.90;;;;;;5019947;28;20491;-60
2022/12/30 04:12:57;;;;;;;52.27;9.27;;;7.00;99.90;;;;;;5047487;28;20993;-60
2022/12/30 04:15:23;;;;;;;41.97;7.40;;;6.90;99.90;;;;;;5033256;28;20480;-60
2022/12/30 04:17:50;;;;;;;58.83;11.87;;;;;;;;;;5026006;28;20976;-60
2022/12/30 04:20:17;;;;;;;54.30;9.20;;;;;;;;;;5029148;28;20480;-60
2022/12/30 04:22:44;;;;;;;35.60;7.67;;;6.80;99.90;;;;;;5032268;28;20828;-61
2022/12/30 04:25:11;;;;;;;30.00;8.27;;;6.80;99.90;;;;;;5030984;28;20538;-61
2022/12/30 04:27:39;;;;;;;40.83;7.90;;;6.80;99.90;;;;;;5039829;28;21037;-61
2022/12/30 04:30:07;;;;;;;35.63;7.70;;;6.90;99.90;;;;;;5030667;28;20488;-60
2022/12/30 04:32:34;;;;;;;34.73;7.10;;;5.50;99.90;;;;;;5022684;28;21033;-60
2022/12/30 04:35:01;;;;;;;35.27;7.53;;;;;;;;;;5034293;28;20475;-61
2022/12/30 04:37:28;;;;;;;25.83;6.40;;;;;;;;;;5032805;28;20481;-60
2022/12/30 04:39:54;;;;;;;59.63;10.43;;;7.10;99.90;;;;;;5049611;28;20497;-60
2022/12/30 04:42:21;;;;;;;35.00;4.60;;;7.20;99.90;;;;;;5025701;28;20484;-61
2022/12/30 04:44:49;;;;;;;49.03;10.57;;;7.20;99.90;;;;;;5039724;28;20526;-61
2022/12/30 04:47:16;;;;;;;25.20;6.00;;;7.10;99.90;;;;;;5019133;28;20472;-60
2022/12/30 04:49:43;;;;;;;36.40;7.00;;;;;;;;;;5017808;28;20966;-60
2022/12/30 04:52:10;;;;;;;39.90;6.73;;;;;;;;;;5046583;28;20487;-60
2022/12/30 04:54:37;;;;;;;45.70;9.30;;;;;;;;;;5035225;28;20811;-60
2022/12/30 04:57:04;;;;;;;31.90;6.80;;;7.00;99.90;;;;;;5038023;28;21246;-60
2022/12/30 04:59:31;;;;;;;36.17;7.20;;;7.00;99.90;;;;;;5038124;28;20595;-60
2022/12/30 05:01:59;;;;;;;48.03;10.77;;;7.00;99.90;;;;;;5032767;28;20488;-60
2022/12/30 05:04:26;;;;;;;33.93;6.37;;;7.00;99.90;;;;;;5040197;28;20488;-60
2022/12/30 05:06:53;;;;;;;55.63;12.00;;;7.00;99.90;;;;;;5033917;28;20480;-60
2022/12/30 05:09:19;;;;;;;25.33;6.20;;;7.10;99.90;;;;;;5034050;28;20488;-61
2022/12/30 05:11:46;;;;;;;45.73;8.50;;;7.10;99.90;;;;;;5030972;28;20976;-60
2022/12/30 05:14:13;;;;;;;28.87;7.00;;;;;;;;;;5034712;28;20480;-61
2022/12/30 05:16:40;;;;;;;30.67;6.70;;;;;;;;;;5037705;28;20727;-60
2022/12/30 05:19:09;;;;;;;39.90;5.87;;;7.30;99.90;;;;;;5028461;28;20527;-60
2022/12/30 05:21:35;;;;;;;19.27;6.23;;;7.40;99.90;;;;;;5042671;28;20653;-60
2022/12/30 05:26:47;;;;;;;52.60;10.30;;;7.50;99.90;;;;;;5032757;28;20545;-60
2022/12/30 05:29:13;;;;;;;32.93;7.63;;;7.50;99.90;;;;;;5028593;28;20515;-60
2022/12/30 05:31:40;;;;;;;29.07;6.27;;;;;;;;;;5042899;28;20491;-60
2022/12/30 05:34:08;;;;;;;40.03;7.73;;;7.50;99.90;;;;;;5024268;28;20480;-60
2022/12/30 05:36:35;;;;;;;36.90;8.37;;;7.40;99.90;;;;;;5032040;28;21114;-60
2022/12/30 05:39:02;;;;;;;48.67;8.60;;;;;;;;;;5028699;28;20953;-60
2022/12/30 05:41:29;;;;;;;37.93;6.20;;;;;;;;;;5038916;28;20484;-60
2022/12/30 05:43:56;;;;;;;67.23;12.50;;;;;;;;;;5033368;28;20484;-60
2022/12/30 05:46:24;;;;;;;40.87;7.70;;;;;;;;;;5029793;28;20992;-60
2022/12/30 05:48:51;;;;;;;66.13;14.13;;;;;;;;;;5029032;28;21081;-60
2022/12/30 05:51:19;;;;;;;27.93;5.47;;;;;;;;;;5032984;28;20476;-60
2022/12/30 05:53:46;;;;;;;34.57;7.47;;;;;;;;;;5043763;28;20476;-60
2022/12/30 05:56:13;;;;;;;37.77;7.90;;;;;;;;;;5034059;28;20488;-61
2022/12/30 05:58:40;;;;;;;25.47;5.60;;;;;;;;;;5031821;28;20865;-60
2022/12/30 06:01:07;;;;;;;27.47;4.60;;;;;;;;;;5035373;28;20487;-60
2022/12/30 06:03:35;;;;;;;41.17;7.63;;;7.80;99.90;;;;;;5033963;28;20495;-60
2022/12/30 06:06:02;;;;;;;48.10;8.80;;;;;;;;;;5034788;28;20490;-60
2022/12/30 06:08:31;;;;;;;41.53;6.90;;;6.80;99.90;;;;;;5037213;28;20484;-60
2022/12/30 06:10:57;;;;;;;43.60;9.80;;;7.90;99.90;;;;;;5023277;28;20722;-60
2022/12/30 06:13:24;;;;;;;34.03;5.87;;;7.90;99.90;;;;;;5022409;28;20491;-60
2022/12/30 06:15:52;;;;;;;58.83;12.73;;;8.00;99.90;;;;;;5034097;28;20499;-60
2022/12/30 06:18:18;;;;;;;24.87;4.93;;;7.90;99.90;;;;;;5031952;28;20484;-60
2022/12/30 06:20:45;;;;;;;26.63;5.60;;;7.90;99.90;;;;;;5032789;28;20468;-60
2022/12/30 06:23:12;;;;;;;47.17;6.90;;;7.80;99.90;;;;;;5032462;28;20691;-60
2022/12/30 06:25:40;;;;;;;41.07;7.57;;;7.80;99.90;;;;;;5037968;28;20484;-61
2022/12/30 06:28:07;;;;;;;41.70;7.37;;;;;;;;;;5038913;28;20478;-60
2022/12/30 06:30:34;;;;;;;34.13;7.13;;;6.90;99.90;;;;;;5025326;28;20479;-60
2022/12/30 06:33:02;;;;;;;53.43;10.30;;;;;;;;;;5032572;28;21044;-60
2022/12/30 06:35:29;;;;;;;39.40;8.33;;;;;;;;;;5030246;28;20558;-60
2022/12/30 06:37:56;;;;;;;43.37;8.03;;;;;;;;;;5042443;28;20484;-60
2022/12/30 06:40:22;;;;;;;30.67;6.40;;;7.70;99.90;;;;;;5034552;28;20495;-60
2022/12/30 06:42:50;;;;;;;47.27;9.70;;;7.70;99.90;;;;;;5054252;28;20908;-60
2022/12/30 06:45:17;;;;;;;35.40;8.40;;;7.70;99.90;;;;;;5070303;28;20869;-60
2022/12/30 06:47:44;;;;;;;27.77;7.33;;;7.90;99.90;;;;;;5060023;28;20467;-60
2022/12/30 06:50:11;;;;;;;40.60;8.90;;;7.80;99.90;;;;;;5055788;28;20495;-60
2022/12/30 06:52:38;;;;;;;42.33;8.10;;;7.80;99.90;;;;;;5063236;28;20483;-60
2022/12/30 06:55:05;;;;;;;39.03;8.40;;;7.80;99.90;;;;;;5065856;27;21037;-60
2022/12/30 06:57:33;;;;;;;39.27;7.07;;;;;;;;;;5057113;28;20855;-60
2022/12/30 07:00:01;;;;;;;52.43;10.07;;;7.90;99.90;;;;;;5071337;28;20825;-60
2022/12/30 07:02:28;;;;;;;28.30;6.40;;;7.90;99.90;;;;;;5072275;28;20470;-60
2022/12/30 07:04:55;;;;;;;56.83;10.87;;;;;;;;;;5058986;27;20481;-61
2022/12/30 07:07:22;;;;;;;29.40;5.37;;;;;;;;;;5101763;27;20837;-60
2022/12/30 07:09:49;;;;;;;45.80;9.47;;;8.00;99.90;;;;;;5082669;27;20671;-61
2022/12/30 07:12:16;;;;;;;26.40;6.13;;;8.10;99.90;;;;;;5072971;27;20697;-61
2022/12/30 07:14:43;;;;;;;32.43;6.70;;;8.00;99.90;;;;;;5067641;28;20713;-60
2022/12/30 07:17:11;;;;;;;36.63;6.77;;;7.90;99.90;;;;;;5057651;28;20567;-61
2022/12/30 07:19:37;;;;;;;45.03;6.97;;;8.00;99.90;;;;;;5057896;28;20479;-61
2022/12/30 07:22:04;;;;;;;23.90;5.83;;;8.00;99.90;;;;;;5055519;28;21084;-61
2022/12/30 07:24:31;;;;;;;22.83;6.40;;;8.00;99.90;;;;;;5069803;28;20474;-60
2022/12/30 07:26:57;;;;;;;43.40;10.10;;;8.10;99.90;;;;;;5058969;28;20482;-61
2022/12/30 07:29:24;;;;;;;28.73;6.50;;;8.10;99.90;;;;;;5063095;28;20482;-60
2022/12/30 07:31:51;;;;;;;39.23;9.73;;;;;;;;;;5059118;28;20880;-61
2022/12/30 07:34:19;;;;;;;24.27;5.60;;;8.30;99.90;;;;;;5070019;28;20482;-61
2022/12/30 07:36:46;;;;;;;27.33;5.97;;;8.40;99.90;;;;;;5062891;28;20475;-61
2022/12/30 07:39:13;;;;;;;25.60;7.33;;;8.40;99.90;;;;;;5068836;28;20906;-61
2022/12/30 07:41:39;;;;;;;29.90;8.07;;;8.50;99.90;;;;;;5065019;28;20487;-60
2022/12/30 07:44:06;;;;;;;28.83;6.73;;;8.50;99.90;;;;;;5059853;28;20494;-60
2022/12/30 07:46:34;;;;;;;38.83;7.53;;;;;;;;;;5069879;28;20522;-60
2022/12/30 07:49:00;;;;;;;44.77;9.43;;;8.40;99.90;;;;;;5058226;28;20468;-60
2022/12/30 07:51:28;;;;;;;35.13;7.60;;;8.30;99.90;;;;;;5072248;28;20482;-60
2022/12/30 07:53:55;;;;;;;32.17;6.73;;;8.40;99.90;;;;;;5071787;28;20483;-60
2022/12/30 07:56:21;;;;;;;24.00;5.80;;;8.40;99.90;;;;;;5058740;28;20483;-60
2022/12/30 07:58:48;;;;;;;64.37;12.53;;;8.50;99.90;;;;;;5076976;28;20493;-60
2022/12/30 08:01:15;;;;;;;25.23;6.23;;;;;;;;;;5067798;28;20886;-60
2022/12/30 08:03:43;;;;;;;39.60;8.23;;;;;;;;;;5069474;28;20984;-60
2022/12/30 08:06:11;;;;;;;27.80;7.50;;;8.50;99.90;;;;;;5083368;27;20912;-60
2022/12/30 08:08:40;;;;;;;49.43;10.30;;;8.60;99.90;;;;;;5043757;27;20484;-60
2022/12/30 08:11:08;;;;;;;24.73;6.67;;;8.60;99.90;;;;;;5044371;28;20483;-60
2022/12/30 08:13:36;;;;;;;22.83;6.00;;;8.60;99.90;;;;;;5052846;28;20579;-60
2022/12/30 08:16:04;;;;;;;44.60;9.00;;;8.60;99.90;;;;;;5059245;28;20728;-60
2022/12/30 08:18:31;;;;;;;46.97;9.07;;;8.60;99.90;;;;;;5050080;28;21090;-60
2022/12/30 08:20:59;;;;;;;77.80;15.10;;;;;;;;;;5047349;28;20870;-60
2022/12/30 08:23:27;;;;;;;41.40;9.40;;;;;;;;;;5054374;28;20511;-60
2022/12/30 08:25:55;;;;;;;61.87;14.97;;;8.50;99.90;;;;;;5053444;28;20781;-60
2022/12/30 08:28:21;;;;;;;42.50;11.60;;;8.40;99.90;;;;;;5059278;28;20488;-60
2022/12/30 08:30:48;;;;;;;56.07;12.47;;;8.60;99.90;;;;;;5047997;28;20989;-60
2022/12/30 08:33:15;;;;;;;28.73;6.10;;;;;;;;;;5038185;28;21065;-60
2022/12/30 08:35:42;;;;;;;48.27;9.97;;;;;;;;;;5048399;28;20480;-61
2022/12/30 08:38:09;;;;;;;53.60;11.67;;;9.10;99.90;;;;;;5037128;28;20499;-61
2022/12/30 08:40:36;;;;;;;37.20;8.50;;;9.40;99.90;;;;;;5046177;28;20835;-61
2022/12/30 08:43:04;;;;;;;61.17;15.50;;;;;;;;;;5051092;28;20500;-61
2022/12/30 08:45:31;;;;;;;40.10;11.47;;;10.30;99.90;;;;;;5061596;28;20969;-60
2022/12/30 08:47:57;;;;;;;55.73;13.53;;;10.50;99.90;;;;;;5045201;28;20988;-61
2022/12/30 08:50:24;;;;;;;33.87;10.57;;;10.70;99.90;;;;;;5044046;28;20483;-60
2022/12/30 08:52:52;;;;;;;52.93;15.50;;;;;;;;;;5057620;28;21009;-61
2022/12/30 08:55:18;;;;;;;37.13;10.00;;;10.80;99.90;;;;;;5047524;28;20483;-60
2022/12/30 08:57:45;;;;;;;45.40;12.80;;;11.00;99.90;;;;;;5052394;28;20486;-60
2022/12/30 09:00:14;;;;;;;55.33;11.70;;;11.10;99.90;;;;;;5049378;28;20581;-61
2022/12/30 09:02:41;;;;;;;38.97;8.30;;;11.20;99.90;;;;;;5056078;28;20503;-60
2022/12/30 09:05:08;;;;;;;33.00;8.40;;;;;;;;;;5053673;28;20474;-61
2022/12/30 09:07:35;;;;;;;30.43;7.27;;;11.20;99.90;;;;;;5014858;28;20471;-60
2022/12/30 09:10:02;;;;;;;39.70;7.90;;;11.10;99.90;;;;;;5021808;28;20877;-61
2022/12/30 09:12:29;;;;;;;30.47;7.90;;;11.00;99.90;;;;;;5027751;28;20492;-60
2022/12/30 09:14:56;;;;;;;43.53;10.90;;;;;;;;;;5022781;28;20864;-60
2022/12/30 09:17:24;;;;;;;35.47;7.03;;;10.50;99.90;;;;;;5032456;28;20511;-60
2022/12/30 09:19:51;;;;;;;42.60;10.87;;;10.30;99.90;;;;;;5040233;28;20473;-61
2022/12/30 09:22:18;;;;;;;28.30;6.00;;;9.90;99.90;;;;;;5024847;28;20875;-60
2022/12/30 09:24:45;;;;;;;42.17;8.50;;;;;;;;;;5050682;28;20605;-60
2022/12/30 09:27:12;;;;;;;22.03;6.87;;;9.50;99.90;;;;;;5042209;28;20603;-61
2022/12/30 09:29:38;;;;;;;22.97;7.30;;;9.60;99.90;;;;;;5032671;28;20484;-60
2022/12/30 09:32:05;;;;;;;30.30;8.00;;;9.50;99.90;;;;;;5026742;28;20483;-60
2022/12/30 09:34:34;;;;;;;36.03;9.50;;;9.50;99.90;;;;;;5027586;28;20687;-60
2022/12/30 09:37:01;;;;;;;29.47;7.23;;;9.50;99.90;;;;;;5023087;28;20492;-60
2022/12/30 09:39:31;;;;;;;23.70;6.77;;;9.60;99.90;;;;;;5046473;28;20498;-60
2022/12/30 09:45:08;;;;;;;30.63;6.90;;;9.40;99.90;;;;;;5054260;28;21108;-60
2022/12/30 09:47:40;;;;;;;34.50;8.87;;;9.40;99.90;;;;;;5041126;28;20473;-60
2022/12/30 09:50:19;;;;;;;38.97;9.80;;;9.30;99.90;;;;;;5048112;28;20803;-60
2022/12/30 09:52:52;;;;;;;22.07;5.90;;;9.30;99.90;;;;;;5045995;28;20522;-60
2022/12/30 09:55:22;;;;;;;33.87;7.70;;;9.20;99.90;;;;;;5047038;28;20915;-61
2022/12/30 09:57:54;;;;;;;50.97;10.47;;;9.10;99.90;;;;;;5055976;28;20520;-60
2022/12/30 10:00:23;;;;;;;33.73;7.37;;;9.10;99.90;;;;;;5050540;28;20479;-60
2022/12/30 10:02:58;;;;;;;29.13;7.13;;;9.10;99.90;;;;;;5049547;28;21024;-60
2022/12/30 10:05:40;;;;;;;22.60;6.70;;;9.20;99.90;;;;;;5056976;28;20970;-60
2022/12/30 10:08:25;;;;;;;33.90;6.70;;;9.20;99.90;;;;;;5049752;28;20467;-60
2022/12/30 10:10:56;;;;;;;41.17;10.40;;;9.40;99.90;;;;;;5047491;28;20914;-60
2022/12/30 10:13:32;;;;;;;18.23;4.90;;;9.50;99.90;;;;;;5052901;28;20486;-60
2022/12/30 10:16:07;;;;;;;55.00;11.70;;;9.70;99.90;;;;;;5063264;28;21029;-60
2022/12/30 10:19:08;;;;;;;47.50;9.17;;;9.90;99.90;;;;;;5063416;28;20976;-60
2022/12/30 10:21:47;;;;;;;42.47;7.50;;;9.90;99.90;;;;;;4983351;28;20499;-60
2022/12/30 10:24:37;;;;;;;65.67;9.73;;;9.90;99.90;;;;;;5053514;28;20475;-60
2022/12/30 10:27:10;;;;;;;28.70;5.77;;;9.80;99.90;;;;;;5033500;27;20574;-61
2022/12/30 10:29:40;;;;;;;40.37;7.53;;;9.90;99.90;;;;;;5045246;28;20494;-60
2022/12/30 10:32:15;;;;;;;40.33;7.67;;;9.90;99.90;;;;;;5055881;28;21000;-60
2022/12/30 10:34:42;;;;;;;43.57;8.03;;;;;;;;;;5037542;28;20488;-60
2022/12/30 10:37:17;;;;;;;52.53;9.33;;;10.20;99.90;;;;;;5033496;28;20487;-60
2022/12/30 10:39:47;;;;;;;71.00;9.83;;;10.30;99.90;;;;;;5054920;28;20541;-60
2022/12/30 10:42:23;;;;;;;64.20;9.00;;;10.40;99.90;;;;;;5042381;28;20486;-60
2022/12/30 10:44:59;;;;;;;59.27;8.67;;;;;;;;;;5024428;28;20484;-60
2022/12/30 10:47:40;;;;;;;67.80;9.93;;;10.50;99.90;;;;;;5024025;28;20486;-60
2022/12/30 10:50:19;;;;;;;80.33;10.53;;;;;;;;;;5020718;28;20481;-60
2022/12/30 10:52:47;;;;;;;111.13;13.23;;;10.30;99.90;;;;;;5026174;28;20479;-60
2022/12/30 10:55:22;;;;;;;71.60;7.97;;;;;;;;;;5049674;28;20490;-60
2022/12/30 10:57:50;;;;;;;124.37;12.10;;;;;;;;;;5025470;28;20974;-60
2022/12/30 11:00:20;;;;;;;68.30;12.63;;;10.00;99.90;;;;;;5022485;28;20484;-61
2022/12/30 11:02:54;;;;;;;53.43;9.87;;;9.90;99.90;;;;;;5026963;28;20866;-60
2022/12/30 11:05:30;;;;;;;30.77;7.37;;;9.80;99.90;;;;;;5028565;28;20482;-60
2022/12/30 11:07:59;;;;;;;53.50;11.03;;;9.70;99.90;;;;;;5028798;28;20483;-60
2022/12/30 11:10:27;;;;;;;21.07;6.10;;;9.60;99.90;;;;;;5038944;28;20763;-60
2022/12/30 11:15:54;;;;;;;66.23;13.43;;;9.70;99.90;;;;;;5049726;28;20475;-60
2022/12/30 11:18:25;;;;;;;18.00;4.90;;;9.60;99.90;;;;;;5043538;28;20482;-60
2022/12/30 11:20:53;;;;;;;35.80;9.90;;;9.80;99.90;;;;;;5033827;28;20493;-60
2022/12/30 11:23:27;;;;;;;23.37;6.07;;;10.00;99.90;;;;;;5054615;28;20474;-60
2022/12/30 11:25:54;;;;;;;34.53;10.50;;;10.10;99.90;;;;;;5044318;28;20840;-61
2022/12/30 11:28:23;;;;;;;12.57;4.87;;;10.20;99.90;;;;;;5024667;28;20487;-60
2022/12/30 11:31:02;;;;;;;38.77;10.10;;;10.40;99.90;;;;;;5043746;28;20483;-60
2022/12/30 11:33:31;;;;;;;20.10;7.10;;;10.50;99.90;;;;;;5049822;28;20483;-61
2022/12/30 11:36:16;;;;;;;33.97;9.37;;;10.60;99.90;;;;;;5048860;28;20483;-61
2022/12/30 11:38:45;;;;;;;14.40;5.73;;;10.60;99.90;;;;;;5029542;28;20493;-61
2022/12/30 11:41:25;;;;;;;18.33;5.70;;;10.60;99.90;;;;;;5046314;27;20462;-61
2022/12/30 11:44:06;;;;;;;24.33;9.00;;;10.70;99.90;;;;;;5052549;27;20967;-61
2022/12/30 11:46:36;;;;;;;18.93;6.50;;;10.70;99.90;;;;;;5051164;27;20500;-61
2022/12/30 11:49:04;;;;;;;30.77;7.57;;;10.80;99.90;;;;;;5039690;28;20480;-61
2022/12/30 11:51:34;;;;;;;24.20;8.87;;;10.80;99.90;;;;;;5041839;28;20485;-61
2022/12/30 11:54:14;;;;;;;29.60;7.50;;;10.90;99.90;;;;;;5048444;28;21036;-62
2022/12/30 11:56:52;;;;;;;24.90;8.50;;;10.90;99.90;;;;;;5070595;28;20483;-61
2022/12/30 11:59:23;;;;;;;13.43;5.03;;;11.00;99.90;;;;;;5030967;28;20490;-61
2022/12/30 12:01:53;;;;;;;31.80;9.73;;;11.00;99.90;;;;;;5045911;28;20565;-61
2022/12/30 12:04:32;;;;;;;22.17;6.37;;;11.00;99.90;;;;;;5059754;28;20879;-61
2022/12/30 12:06:59;;;;;;;36.53;9.87;;;10.90;99.90;;;;;;5063065;28;20480;-61
2022/12/30 12:09:32;;;;;;;25.10;7.23;;;10.80;99.90;;;;;;5070406;28;20576;-61
2022/12/30 12:12:03;;;;;;;39.20;11.00;;;10.70;99.90;;;;;;5049305;28;20493;-62
2022/12/30 12:14:36;;;;;;;28.03;8.20;;;10.50;99.90;;;;;;5064348;28;21027;-62
2022/12/30 12:17:10;;;;;;;11.00;4.70;;;10.50;99.90;;;;;;5042008;28;20482;-62
2022/12/30 12:19:42;;;;;;;34.73;9.87;;;10.40;99.90;;;;;;5042104;28;20498;-61
2022/12/30 12:22:19;;;;;;;30.57;7.50;;;10.30;99.90;;;;;;5023603;28;20507;-61
2022/12/30 12:24:54;;;;;;;34.83;9.47;;;10.30;99.90;;;;;;5043080;28;20490;-61
2022/12/30 12:27:21;;;;;;;19.17;6.93;;;10.20;99.90;;;;;;5027688;28;21422;-62
2022/12/30 12:29:48;;;;;;;32.10;9.60;;;10.20;99.90;;;;;;5027359;28;21008;-61
2022/12/30 12:32:41;;;;;;;20.53;6.97;;;10.20;99.90;;;;;;5028561;28;20499;-60
2022/12/30 12:35:20;;;;;;;18.00;7.20;;;10.20;99.90;;;;;;5009389;28;20626;-61
2022/12/30 12:38:00;;;;;;;29.00;9.20;;;10.20;99.90;;;;;;5029776;28;20845;-61
2022/12/30 12:40:38;;;;;;;40.03;11.73;;;10.20;99.90;;;;;;5035180;28;20902;-61
2022/12/30 12:43:16;;;;;;;14.50;6.03;;;10.20;99.90;;;;;;5030486;28;20525;-61
2022/12/30 12:46:02;;;;;;;17.93;7.73;;;10.20;99.90;;;;;;5033989;28;20480;-61
2022/12/30 12:48:49;;;;;;;22.60;6.53;;;10.00;99.90;;;;;;5033731;28;20483;-61
2022/12/30 12:51:34;;;;;;;14.10;6.43;;;10.10;99.90;;;;;;5023681;28;20476;-60
2022/12/30 12:54:19;;;;;;;16.20;6.23;;;9.20;99.90;;;;;;5021278;28;20472;-61
2022/12/30 12:57:05;;;;;;;29.90;10.27;;;9.90;99.90;;;;;;5038301;28;20480;-61
2022/12/30 12:59:46;;;;;;;19.70;9.20;;;9.90;99.90;;;;;;5017742;28;20656;-61
2022/12/30 13:02:39;;;;;;;14.67;6.80;;;9.90;99.90;;;;;;5029641;28;20480;-61
2022/12/30 13:05:10;;;;;;;17.00;7.33;;;9.80;99.90;;;;;;5018482;28;20749;-61
2022/12/30 13:07:49;;;;;;;22.13;8.60;;;9.90;99.90;;;;;;5028230;28;20523;-61
2022/12/30 13:10:29;;;;;;;24.60;10.73;;;9.90;99.90;;;;;;5017708;28;20874;-61
2022/12/30 13:13:04;;;;;;;26.20;10.17;;;9.60;99.90;;;;;;5025927;28;20483;-62
2022/12/30 13:15:37;;;;;;;26.73;8.53;;;9.80;99.90;;;;;;5030712;28;20556;-62
2022/12/30 13:18:09;;;;;;;22.80;8.87;;;9.70;99.90;;;;;;5041165;28;20516;-62
2022/12/30 13:20:46;;;;;;;15.17;6.97;;;9.60;99.90;;;;;;5036196;28;20479;-61
2022/12/30 13:23:15;;;;;;;19.60;7.33;;;9.50;99.90;;;;;;5050011;28;20520;-61
2022/12/30 13:25:45;;;;;;;25.37;9.73;;;9.50;99.90;;;;;;5031672;28;20564;-61
2022/12/30 13:28:19;;;;;;;26.20;10.10;;;9.30;99.90;;;;;;5029842;28;21070;-61
2022/12/30 13:30:59;;;;;;;24.43;9.40;;;9.30;99.90;;;;;;5045472;28;20482;-61
2022/12/30 13:33:37;;;;;;;22.33;8.03;;;9.30;99.90;;;;;;5039521;28;20487;-61
2022/12/30 13:36:11;;;;;;;14.57;6.30;;;9.30;99.90;;;;;;5044652;28;20467;-60
2022/12/30 13:38:55;;;;;;;27.23;9.30;;;9.30;99.90;;;;;;5052617;28;20479;-61
2022/12/30 13:41:34;;;;;;;15.83;6.60;;;9.20;99.90;;;;;;5041346;27;20882;-61
2022/12/30 13:44:04;;;;;;;23.40;8.60;;;9.20;99.90;;;;;;5050144;27;20956;-61
2022/12/30 13:46:34;;;;;;;21.33;8.43;;;9.20;99.90;;;;;;5051592;27;20850;-60
2022/12/30 13:49:06;;;;;;;30.27;9.33;;;9.10;99.90;;;;;;5053786;27;20921;-60
2022/12/30 13:51:33;;;;;;;18.50;8.13;;;9.20;99.90;;;;;;5048343;27;20493;-60
2022/12/30 13:54:09;;;;;;;24.33;7.90;;;9.20;99.90;;;;;;5057597;27;20479;-60
2022/12/30 13:56:38;;;;;;;25.77;9.23;;;9.20;99.90;;;;;;5055545;27;20565;-62
2022/12/30 13:59:07;;;;;;;21.97;8.10;;;9.20;99.90;;;;;;5052963;27;20479;-61
2022/12/30 14:01:36;;;;;;;27.87;9.73;;;9.20;99.90;;;;;;5045184;27;20482;-61
2022/12/30 14:04:33;;;;;;;32.80;9.70;;;9.20;99.90;;;;;;5057338;27;20484;-61
2022/12/30 14:07:00;;;;;;;34.53;11.00;;;9.30;99.90;;;;;;5045379;27;20996;-61
2022/12/30 14:09:29;;;;;;;18.00;7.57;;;9.20;99.90;;;;;;5060212;27;20470;-61
2022/12/30 14:12:28;;;;;;;34.73;12.33;;;9.20;99.90;;;;;;5034399;28;20471;-61
2022/12/30 14:14:59;;;;;;;45.50;14.57;;;9.30;99.90;;;;;;5034900;28;20486;-61
2022/12/30 14:17:29;;;;;;;21.97;7.67;;;9.30;99.90;;;;;;5038846;28;20468;-61
2022/12/30 14:20:00;;;;;;;41.23;13.00;;;9.30;99.90;;;;;;5043142;28;20874;-61